Terminal Aerodrome Forecast
Issued by NWS Sioux Falls, SD

Home | Current Version | Previous Version | Graphics & Text | Print | Product List | Glossary On
Versions: 1 2 3 4 5 6 7 8 9 10 11 12 13 14
535
FTUS43 KFSD 100534
TAFHON
TAF
KHON 100534Z 1006/1106 02006KT P6SM BKN050
     FM101200 07006KT 6SM -SN OVC030
     FM101400 08007KT 2SM -SN OVC025
     FM101600 09008KT 1SM -SN OVC015
     FM102200 10012KT 1 1/2SM -SN OVC010
     FM110100 11012KT 3SM -SN OVC008=

USA.gov is the U.S. government's official web portal to all federal, state and local government web resources and services.